Plain Dealing, LA (71064)

12:13 AM CDT on April 21, 2015 (GMT -0500)
PD High School | | Change Station
CLOSE
Current Station
Personal Weather Station
Location: Plain Dealing, LA
Elevation: 300 ft
Nearby Weather Stations
Active Advisory: Flood Warning Active Notice: Local Storm Report

Elev 300 ft 32.91 °N, 93.70 °W | Updated 4 seconds ago

Clear
Clear
50.4 °F
Feels Like 50.4 °F
N
0.0
Wind Variable Wind from West
Gusts 0.0 mph

Today
High -- | Low -- °F
--% Chance of Precip.
Yesterday
High -- | Low -- °F
Precip. -- in
6:38 AM 7:49 PM
Waxing Crescent, 8% visible
Pressure 30.01 in
Visibility 10.0 miles
Clouds Clear
Dew Point 46 °F
Humidity 85%
Rainfall 0.00 in
Snow Depth Not available.
UV 0 out of 12
Pollen 10.20 out of 12
Air Quality Not available.
Flu Activity Local Activity
METAR KDTN 210453Z AUTO 00000KT 10SM CLR 13/08 A3001 RMK AO2 SLP160 T01280083

More Conditions Fewer Conditions

Pressure 30.01 in
Visibility 10.0 miles
Clouds Clear
Dew Point 46 °F
Humidity 85%
Rainfall 0.00 in
Snow Depth Not available.
UV 0 out of 12
Pollen 10.20 out of 12
Air Quality Not available.
Flu Activity Local Activity
METAR KDTN 210453Z AUTO 00000KT 10SM CLR 13/08 A3001 RMK AO2 SLP160 T01280083

More Conditions Fewer Conditions

10-Day Weather Forecast

Almanac

Astronomy

Apr. 21, 2015 Rise Set
Actual Time
Civil Twilight
Nautical Twilight
Astronomical Twilight
Moon
Length of Visible Light
Length of Day
Tomorrow will be .
, % of the Moon is Illuminated

Today's Extremes

State Highs State Lows

Community

WunderPhotos

Upload Photos

1,815,316 photos uploaded!

WunderBlogs® & News

Nearby

Air Quality

  Air Quality AQ Index Pollutant
Not available.

Snow Depth

Station Depth Elevation

Earthquake Activity

City Distance Mag. Time & Date
Minimum magnitude displayed is 2.5.

Coastal Water Temperatures

Place Temperature

Stations

Nearby Weather Stations

Station Location Temp. Windchill Dew Point Humidity Wind Precip. Elev Updated Type
                   
Flood Warning
Statement as of 10:10 AM CDT on April 20, 2015

The Flood Warning continues for
the Bodcau bayou at bayou Bodcau Lake.
* Until further notice... or until the warning is cancelled.
* At 900 am Monday the pool stage was 181.0 feet.
* Minor flooding is occurring and minor flooding is forecast.
* Flood pool stage is 172 feet.
* Forecast... the river will continue to fall to a stage of 180.7 feet
by Tuesday morning.


Lat... Lon 3282 9351 3289 9344 3272 9346 3270 9351 3277 9351